Time,TemperatureF,DewpointF,PressureIn,WindDirection,WindDirectionDegrees,WindSpeedMPH,WindSpeedGustMPH,Humidity,HourlyPrecipIn,Conditions,Clouds,dailyrainin,SolarRadiationWatts/m^2,SoftwareType,DateUTC
2013-05-20 00:00:00,40.0,-99.9,-100.00,North,353,5.0,10.0,-999,-99.99,,,0.00,94.199997,,2013-05-20 06:00:00,
2013-05-20 00:52:00,40.0,-99.9,-100.00,North,353,5.0,10.0,-999,-99.99,,,0.00,94.199997,,2013-05-20 06:52:00,
2013-05-20 01:00:00,39.0,-99.9,-100.00,NNE,17,2.0,6.0,-999,-99.99,,,0.00,94.199997,,2013-05-20 07:00:00,
2013-05-20 01:52:00,39.0,-99.9,-100.00,North,-999,-999.0,-999.0,-999,-99.99,,,0.00,,,2013-05-20 07:52:00,
2013-05-20 02:00:00,38.0,-99.9,-100.00,North,349,4.0,10.0,-999,-99.99,,,0.00,94.000000,,2013-05-20 08:00:00,
2013-05-20 03:00:00,39.0,-99.9,-100.00,NNE,24,3.0,8.0,-999,-99.99,,,0.00,94.599998,,2013-05-20 09:00:00,
2013-05-20 04:00:00,35.0,-99.9,-100.00,ENE,69,1.0,4.0,-999,-99.99,,,0.00,94.599998,,2013-05-20 10:00:00,
2013-05-20 05:00:00,36.0,-99.9,-100.00,South,182,1.0,3.0,-999,-99.99,,,0.00,94.400002,,2013-05-20 11:00:00,
2013-05-20 06:00:00,35.0,-99.9,-100.00,SSW,210,0.0,3.0,-999,-99.99,,,0.00,95.000000,,2013-05-20 12:00:00,
2013-05-20 08:00:00,42.0,-99.9,-100.00,ESE,123,0.0,2.0,-999,-99.99,,,0.00,95.199997,,2013-05-20 14:00:00,
2013-05-20 09:00:00,53.0,-99.9,-100.00,NNW,348,1.0,3.0,-999,-99.99,,,-99.99,95.099998,,2013-05-20 15:00:00,
2013-05-20 10:00:00,55.0,-99.9,-100.00,WSW,254,2.0,5.0,-999,-99.99,,,-99.99,95.000000,,2013-05-20 16:00:00,
2013-05-20 11:00:00,56.0,-99.9,-100.00,WNW,292,4.0,7.0,-999,-99.99,,,-99.99,94.400002,,2013-05-20 17:00:00,
2013-05-20 12:00:00,59.0,-99.9,-100.00,WSW,243,3.0,9.0,-999,-99.99,,,-99.99,94.300003,,2013-05-20 18:00:00,
2013-05-20 13:00:00,61.0,-99.9,-100.00,West,268,4.0,8.0,-999,-99.99,,,0.00,93.800003,,2013-05-20 19:00:00,
2013-05-20 14:00:00,62.0,-99.9,-100.00,West,261,5.0,11.0,-999,-99.99,,,0.00,93.599998,,2013-05-20 20:00:00,
2013-05-20 14:42:00,62.0,-99.9,-100.00,West,261,5.0,11.0,-999,-99.99,,,-99.99,93.599998,,2013-05-20 20:42:00,
2013-05-20 14:52:00,62.0,-99.9,-100.00,West,261,5.0,11.0,-999,-99.99,,,0.00,93.599998,,2013-05-20 20:52:00,
2013-05-20 15:00:00,65.0,-99.9,-100.00,WSW,248,5.0,11.0,-999,-99.99,,,0.00,93.500000,,2013-05-20 21:00:00,
2013-05-20 15:43:00,65.0,-99.9,-100.00,WSW,248,5.0,11.0,-999,-99.99,,,-99.99,93.500000,,2013-05-20 21:43:00,
2013-05-20 15:53:00,65.0,-99.9,-100.00,WSW,248,5.0,11.0,-999,-99.99,,,0.00,93.500000,,2013-05-20 21:53:00,
2013-05-20 17:00:00,64.0,-99.9,-100.00,WNW,284,6.0,11.0,-999,-99.99,,,0.00,93.500000,,2013-05-20 23:00:00,
2013-05-20 18:00:00,65.0,-99.9,-100.00,WNW,290,5.0,9.0,-999,-99.99,,,-99.99,93.400002,,2013-05-21 00:00:00,
2013-05-20 19:00:00,63.0,-99.9,-100.00,West,265,5.0,8.0,-999,-99.99,,,0.00,93.300003,,2013-05-21 01:00:00,
2013-05-20 20:00:00,63.0,-99.9,-100.00,WNW,286,4.0,7.0,-999,-99.99,,,0.00,93.400002,,2013-05-21 02:00:00,
2013-05-20 21:00:00,59.0,-99.9,-100.00,SW,214,3.0,6.0,-999,-99.99,,,0.00,93.500000,,2013-05-21 03:00:00,
2013-05-20 22:00:00,52.0,-99.9,-100.00,NE,37,1.0,3.0,-999,-99.99,,,0.00,93.599998,,2013-05-21 04:00:00,
2013-05-20 22:53:00,52.0,-99.9,-100.00,NE,37,1.0,3.0,-999,-99.99,,,0.00,93.599998,,2013-05-21 04:53:00,
2013-05-20 23:00:00,46.0,-99.9,-100.00,NE,34,1.0,3.0,-999,-99.99,,,0.00,93.599998,,2013-05-21 05:00:00,
2013-05-20 23:52:00,46.0,-99.9,-100.00,NE,34,1.0,3.0,-999,-99.99,,,0.00,93.599998,,2013-05-21 05:52:00,